sensor_id;sensor_type;location;lat;lon;timestamp;temperature;humidity
13848;DHT22;6994;49.752;6.094;2023-01-26T00:02:09;0.50;99.90
13848;DHT22;6994;49.752;6.094;2023-01-26T00:04:37;0.50;99.90
13848;DHT22;6994;49.752;6.094;2023-01-26T00:07:04;0.40;99.90
13848;DHT22;6994;49.752;6.094;2023-01-26T00:09:31;0.40;99.90
13848;DHT22;6994;49.752;6.094;2023-01-26T00:11:58;0.40;99.90
13848;DHT22;6994;49.752;6.094;2023-01-26T00:14:25;0.40;99.90
13848;DHT22;6994;49.752;6.094;2023-01-26T00:16:53;0.40;99.90
13848;DHT22;6994;49.752;6.094;2023-01-26T00:19:20;0.40;99.90
13848;DHT22;6994;49.752;6.094;2023-01-26T00:21:47;0.30;99.90
13848;DHT22;6994;49.752;6.094;2023-01-26T00:24:14;0.30;99.90
13848;DHT22;6994;49.752;6.094;2023-01-26T00:26:42;0.50;99.90
13848;DHT22;6994;49.752;6.094;2023-01-26T00:29:09;0.60;99.90
13848;DHT22;6994;49.752;6.094;2023-01-26T00:31:36;0.60;99.90
13848;DHT22;6994;49.752;6.094;2023-01-26T00:34:03;0.60;99.90
13848;DHT22;6994;49.752;6.094;2023-01-26T00:36:31;0.50;99.90
13848;DHT22;6994;49.752;6.094;2023-01-26T00:38:58;0.50;99.90
13848;DHT22;6994;49.752;6.094;2023-01-26T00:41:26;0.40;99.90
13848;DHT22;6994;49.752;6.094;2023-01-26T00:43:53;0.30;99.90
13848;DHT22;6994;49.752;6.094;2023-01-26T00:46:21;0.20;99.90
13848;DHT22;6994;49.752;6.094;2023-01-26T00:48:48;0.20;99.90
13848;DHT22;6994;49.752;6.094;2023-01-26T00:51:15;0.10;99.90
13848;DHT22;6994;49.752;6.094;2023-01-26T00:53:42;0.00;99.90
13848;DHT22;6994;49.752;6.094;2023-01-26T00:56:09;0.00;99.90
13848;DHT22;6994;49.752;6.094;2023-01-26T00:58:37;-0.10;99.90
13848;DHT22;6994;49.752;6.094;2023-01-26T01:01:04;-0.10;99.90
13848;DHT22;6994;49.752;6.094;2023-01-26T01:03:31;-0.20;99.90
13848;DHT22;6994;49.752;6.094;2023-01-26T01:05:58;-0.20;99.90
13848;DHT22;6994;49.752;6.094;2023-01-26T01:08:26;-0.30;99.90
13848;DHT22;6994;49.752;6.094;2023-01-26T01:11:06;-0.30;99.90
13848;DHT22;6994;49.752;6.094;2023-01-26T01:13:29;-0.30;99.90
13848;DHT22;6994;49.752;6.094;2023-01-26T01:15:56;-0.10;99.90
13848;DHT22;6994;49.752;6.094;2023-01-26T01:18:23;0.00;99.90
13848;DHT22;6994;49.752;6.094;2023-01-26T01:20:51;-0.20;99.90
13848;DHT22;6994;49.752;6.094;2023-01-26T01:23:19;-0.20;99.90
13848;DHT22;6994;49.752;6.094;2023-01-26T01:25:46;-0.30;99.90
13848;DHT22;6994;49.752;6.094;2023-01-26T01:28:13;-0.40;99.90
13848;DHT22;6994;49.752;6.094;2023-01-26T01:30:40;-0.20;99.90
13848;DHT22;6994;49.752;6.094;2023-01-26T01:33:08;-0.20;99.90
13848;DHT22;6994;49.752;6.094;2023-01-26T01:35:35;0.00;99.90
13848;DHT22;6994;49.752;6.094;2023-01-26T01:38:02;0.00;99.90
13848;DHT22;6994;49.752;6.094;2023-01-26T01:40:29;0.10;99.90
13848;DHT22;6994;49.752;6.094;2023-01-26T01:42:57;0.00;99.90
13848;DHT22;6994;49.752;6.094;2023-01-26T01:45:34;-0.10;99.90
13848;DHT22;6994;49.752;6.094;2023-01-26T01:47:58;-0.20;99.90
13848;DHT22;6994;49.752;6.094;2023-01-26T01:50:21;-0.40;99.90
13848;DHT22;6994;49.752;6.094;2023-01-26T01:52:48;-0.50;99.90
13848;DHT22;6994;49.752;6.094;2023-01-26T01:55:15;-0.60;99.90
13848;DHT22;6994;49.752;6.094;2023-01-26T01:57:47;-0.60;99.90
13848;DHT22;6994;49.752;6.094;2023-01-26T02:00:14;-0.70;99.90
13848;DHT22;6994;49.752;6.094;2023-01-26T02:02:40;-0.70;99.90
13848;DHT22;6994;49.752;6.094;2023-01-26T02:05:16;-0.80;99.90
13848;DHT22;6994;49.752;6.094;2023-01-26T02:07:40;-0.80;99.90
13848;DHT22;6994;49.752;6.094;2023-01-26T02:10:07;-0.80;99.90
13848;DHT22;6994;49.752;6.094;2023-01-26T02:12:46;-0.90;99.90
13848;DHT22;6994;49.752;6.094;2023-01-26T02:15:13;-0.90;99.90
13848;DHT22;6994;49.752;6.094;2023-01-26T02:17:41;-0.90;99.90
13848;DHT22;6994;49.752;6.094;2023-01-26T02:20:15;-0.90;99.90
13848;DHT22;6994;49.752;6.094;2023-01-26T02:22:47;-0.50;99.90
13848;DHT22;6994;49.752;6.094;2023-01-26T02:25:16;-0.60;99.90
13848;DHT22;6994;49.752;6.094;2023-01-26T02:27:39;-0.50;99.90
13848;DHT22;6994;49.752;6.094;2023-01-26T02:30:06;-0.50;99.90
13848;DHT22;6994;49.752;6.094;2023-01-26T02:32:33;-0.30;99.90
13848;DHT22;6994;49.752;6.094;2023-01-26T02:35:00;-0.30;99.90
13848;DHT22;6994;49.752;6.094;2023-01-26T02:37:28;-0.30;99.90
13848;DHT22;6994;49.752;6.094;2023-01-26T02:39:58;-0.40;99.90
13848;DHT22;6994;49.752;6.094;2023-01-26T02:42:25;-0.50;99.90
13848;DHT22;6994;49.752;6.094;2023-01-26T02:45:05;-0.60;99.90
13848;DHT22;6994;49.752;6.094;2023-01-26T02:47:32;-0.70;99.90
13848;DHT22;6994;49.752;6.094;2023-01-26T02:49:59;-0.70;99.90
13848;DHT22;6994;49.752;6.094;2023-01-26T02:52:27;-0.70;99.90
13848;DHT22;6994;49.752;6.094;2023-01-26T02:54:55;-0.80;99.90
13848;DHT22;6994;49.752;6.094;2023-01-26T02:57:40;-0.80;99.90
13848;DHT22;6994;49.752;6.094;2023-01-26T03:00:21;-0.80;99.90
13848;DHT22;6994;49.752;6.094;2023-01-26T03:02:45;-0.80;99.90
13848;DHT22;6994;49.752;6.094;2023-01-26T03:05:12;-0.80;99.90
13848;DHT22;6994;49.752;6.094;2023-01-26T03:07:39;-0.80;99.90
13848;DHT22;6994;49.752;6.094;2023-01-26T03:10:08;-0.80;99.90
13848;DHT22;6994;49.752;6.094;2023-01-26T03:12:33;-0.90;99.90
13848;DHT22;6994;49.752;6.094;2023-01-26T03:15:01;-0.90;99.90
13848;DHT22;6994;49.752;6.094;2023-01-26T03:17:46;-0.90;99.90
13848;DHT22;6994;49.752;6.094;2023-01-26T03:20:13;-1.00;99.90
13848;DHT22;6994;49.752;6.094;2023-01-26T03:22:59;-0.80;99.90
13848;DHT22;6994;49.752;6.094;2023-01-26T03:25:46;-0.80;99.90
13848;DHT22;6994;49.752;6.094;2023-01-26T03:28:31;-0.90;99.90
13848;DHT22;6994;49.752;6.094;2023-01-26T03:30:58;-0.90;99.90
13848;DHT22;6994;49.752;6.094;2023-01-26T03:33:25;-0.80;99.90
13848;DHT22;6994;49.752;6.094;2023-01-26T03:35:53;-0.80;99.90
13848;DHT22;6994;49.752;6.094;2023-01-26T03:38:20;-0.80;99.90
13848;DHT22;6994;49.752;6.094;2023-01-26T03:40:47;-0.90;99.90
13848;DHT22;6994;49.752;6.094;2023-01-26T03:43:32;-1.00;99.90
13848;DHT22;6994;49.752;6.094;2023-01-26T03:46:18;-1.00;99.90
13848;DHT22;6994;49.752;6.094;2023-01-26T03:49:04;-0.70;99.90
13848;DHT22;6994;49.752;6.094;2023-01-26T03:51:49;-0.70;99.90
13848;DHT22;6994;49.752;6.094;2023-01-26T03:54:34;-0.80;99.90
13848;DHT22;6994;49.752;6.094;2023-01-26T03:57:19;-0.90;99.90
13848;DHT22;6994;49.752;6.094;2023-01-26T03:59:46;-1.00;99.90
13848;DHT22;6994;49.752;6.094;2023-01-26T04:02:14;-0.90;99.90
13848;DHT22;6994;49.752;6.094;2023-01-26T04:05:00;-0.80;99.90
13848;DHT22;6994;49.752;6.094;2023-01-26T04:07:45;-0.90;99.90
13848;DHT22;6994;49.752;6.094;2023-01-26T04:10:30;-0.90;99.90
13848;DHT22;6994;49.752;6.094;2023-01-26T04:12:58;-1.10;99.90
13848;DHT22;6994;49.752;6.094;2023-01-26T04:15:46;-1.30;99.90
13848;DHT22;6994;49.752;6.094;2023-01-26T04:18:30;-1.40;99.90
13848;DHT22;6994;49.752;6.094;2023-01-26T04:21:15;-1.40;99.90
13848;DHT22;6994;49.752;6.094;2023-01-26T04:24:02;-1.60;99.90
13848;DHT22;6994;49.752;6.094;2023-01-26T04:26:30;-1.60;99.90
13848;DHT22;6994;49.752;6.094;2023-01-26T04:28:56;-1.60;99.90
13848;DHT22;6994;49.752;6.094;2023-01-26T04:31:23;-1.70;99.90
13848;DHT22;6994;49.752;6.094;2023-01-26T04:33:50;-1.70;99.90
13848;DHT22;6994;49.752;6.094;2023-01-26T04:36:17;-1.70;99.90
13848;DHT22;6994;49.752;6.094;2023-01-26T04:38:45;-1.50;99.90
13848;DHT22;6994;49.752;6.094;2023-01-26T04:41:12;-1.40;99.90
13848;DHT22;6994;49.752;6.094;2023-01-26T04:43:40;-1.40;99.90
13848;DHT22;6994;49.752;6.094;2023-01-26T04:46:07;-1.40;99.90
13848;DHT22;6994;49.752;6.094;2023-01-26T04:48:34;-1.40;99.90
13848;DHT22;6994;49.752;6.094;2023-01-26T04:51:03;-1.50;99.90
13848;DHT22;6994;49.752;6.094;2023-01-26T04:53:30;-1.50;99.90
13848;DHT22;6994;49.752;6.094;2023-01-26T04:55:56;-1.50;99.90
13848;DHT22;6994;49.752;6.094;2023-01-26T04:58:23;-1.50;99.90
13848;DHT22;6994;49.752;6.094;2023-01-26T05:00:54;-1.60;99.90
13848;DHT22;6994;49.752;6.094;2023-01-26T05:03:21;-1.60;99.90
13848;DHT22;6994;49.752;6.094;2023-01-26T05:05:48;-1.60;99.90
13848;DHT22;6994;49.752;6.094;2023-01-26T05:08:15;-1.70;99.90
13848;DHT22;6994;49.752;6.094;2023-01-26T05:10:42;-1.70;99.90
13848;DHT22;6994;49.752;6.094;2023-01-26T05:13:09;-1.70;99.90
13848;DHT22;6994;49.752;6.094;2023-01-26T05:15:37;-1.80;99.90
13848;DHT22;6994;49.752;6.094;2023-01-26T05:18:04;-1.80;99.90
13848;DHT22;6994;49.752;6.094;2023-01-26T05:20:31;-1.80;99.90
13848;DHT22;6994;49.752;6.094;2023-01-26T05:22:59;-1.70;99.90
13848;DHT22;6994;49.752;6.094;2023-01-26T05:25:27;-1.70;99.90
13848;DHT22;6994;49.752;6.094;2023-01-26T05:27:54;-1.70;99.90
13848;DHT22;6994;49.752;6.094;2023-01-26T05:30:21;-1.60;99.90
13848;DHT22;6994;49.752;6.094;2023-01-26T05:32:49;-1.60;99.90
13848;DHT22;6994;49.752;6.094;2023-01-26T05:35:16;-1.60;99.90
13848;DHT22;6994;49.752;6.094;2023-01-26T05:37:43;-1.70;99.90
13848;DHT22;6994;49.752;6.094;2023-01-26T05:40:11;-1.70;99.90
13848;DHT22;6994;49.752;6.094;2023-01-26T05:42:38;-1.60;99.90
13848;DHT22;6994;49.752;6.094;2023-01-26T05:45:05;-1.60;99.90
13848;DHT22;6994;49.752;6.094;2023-01-26T05:47:33;-1.70;99.90
13848;DHT22;6994;49.752;6.094;2023-01-26T05:50:00;-1.70;99.90
13848;DHT22;6994;49.752;6.094;2023-01-26T05:52:27;-1.70;99.90
13848;DHT22;6994;49.752;6.094;2023-01-26T05:54:55;-1.70;99.90
13848;DHT22;6994;49.752;6.094;2023-01-26T05:57:22;-1.70;99.90
13848;DHT22;6994;49.752;6.094;2023-01-26T05:59:49;-1.70;99.90
13848;DHT22;6994;49.752;6.094;2023-01-26T06:02:17;-1.80;99.90
13848;DHT22;6994;49.752;6.094;2023-01-26T06:04:44;-1.80;99.90
13848;DHT22;6994;49.752;6.094;2023-01-26T06:07:12;-1.80;99.90
13848;DHT22;6994;49.752;6.094;2023-01-26T06:09:39;-1.90;99.90
13848;DHT22;6994;49.752;6.094;2023-01-26T06:12:09;-1.70;99.90
13848;DHT22;6994;49.752;6.094;2023-01-26T06:14:33;-1.60;99.90
13848;DHT22;6994;49.752;6.094;2023-01-26T06:17:01;-1.30;99.90
13848;DHT22;6994;49.752;6.094;2023-01-26T06:19:29;-1.40;99.90
13848;DHT22;6994;49.752;6.094;2023-01-26T06:21:57;-1.50;99.90
13848;DHT22;6994;49.752;6.094;2023-01-26T06:24:24;-1.50;99.90
13848;DHT22;6994;49.752;6.094;2023-01-26T06:26:51;-1.60;99.90
13848;DHT22;6994;49.752;6.094;2023-01-26T06:29:19;-1.70;99.90
13848;DHT22;6994;49.752;6.094;2023-01-26T06:31:46;-1.50;99.90
13848;DHT22;6994;49.752;6.094;2023-01-26T06:34:13;-1.50;99.90
13848;DHT22;6994;49.752;6.094;2023-01-26T06:36:41;-1.60;99.90
13848;DHT22;6994;49.752;6.094;2023-01-26T06:39:08;-1.60;99.90
13848;DHT22;6994;49.752;6.094;2023-01-26T06:41:35;-1.60;99.90
13848;DHT22;6994;49.752;6.094;2023-01-26T06:44:03;-1.70;99.90
13848;DHT22;6994;49.752;6.094;2023-01-26T06:46:30;-1.80;99.90
13848;DHT22;6994;49.752;6.094;2023-01-26T06:48:57;-1.80;99.90
13848;DHT22;6994;49.752;6.094;2023-01-26T06:51:57;-1.90;99.90
13848;DHT22;6994;49.752;6.094;2023-01-26T06:54:20;-1.90;99.90
13848;DHT22;6994;49.752;6.094;2023-01-26T06:56:47;-2.00;99.90
13848;DHT22;6994;49.752;6.094;2023-01-26T06:59:14;-2.00;99.90
13848;DHT22;6994;49.752;6.094;2023-01-26T07:01:42;-2.00;99.90
13848;DHT22;6994;49.752;6.094;2023-01-26T07:04:09;-2.10;99.90
13848;DHT22;6994;49.752;6.094;2023-01-26T07:06:36;-2.10;99.90
13848;DHT22;6994;49.752;6.094;2023-01-26T07:09:03;-2.10;99.90
13848;DHT22;6994;49.752;6.094;2023-01-26T07:11:30;-2.10;99.90
13848;DHT22;6994;49.752;6.094;2023-01-26T07:13:58;-2.10;99.90
13848;DHT22;6994;49.752;6.094;2023-01-26T07:16:26;-2.20;99.90
13848;DHT22;6994;49.752;6.094;2023-01-26T07:18:53;-2.10;99.90
13848;DHT22;6994;49.752;6.094;2023-01-26T07:21:23;-2.20;99.90
13848;DHT22;6994;49.752;6.094;2023-01-26T07:23:51;-2.20;99.90
13848;DHT22;6994;49.752;6.094;2023-01-26T07:26:19;-2.20;99.90
13848;DHT22;6994;49.752;6.094;2023-01-26T07:28:45;-2.20;99.90
13848;DHT22;6994;49.752;6.094;2023-01-26T07:31:13;-2.20;99.90
13848;DHT22;6994;49.752;6.094;2023-01-26T07:33:40;-1.90;99.90
13848;DHT22;6994;49.752;6.094;2023-01-26T07:36:07;-1.80;99.90
13848;DHT22;6994;49.752;6.094;2023-01-26T07:38:34;-1.80;99.90
13848;DHT22;6994;49.752;6.094;2023-01-26T07:41:08;-1.90;99.90
13848;DHT22;6994;49.752;6.094;2023-01-26T07:43:32;-2.00;99.90
13848;DHT22;6994;49.752;6.094;2023-01-26T07:45:58;-2.10;99.90
13848;DHT22;6994;49.752;6.094;2023-01-26T07:48:26;-2.10;99.90
13848;DHT22;6994;49.752;6.094;2023-01-26T07:50:53;-2.00;99.90
13848;DHT22;6994;49.752;6.094;2023-01-26T07:53:20;-1.90;99.90
13848;DHT22;6994;49.752;6.094;2023-01-26T07:55:47;-1.90;99.90
13848;DHT22;6994;49.752;6.094;2023-01-26T07:58:14;-1.90;99.90
13848;DHT22;6994;49.752;6.094;2023-01-26T08:00:42;-1.90;99.90
13848;DHT22;6994;49.752;6.094;2023-01-26T08:03:09;-1.90;99.90
13848;DHT22;6994;49.752;6.094;2023-01-26T08:05:36;-1.90;99.90
13848;DHT22;6994;49.752;6.094;2023-01-26T08:08:03;-1.60;99.90
13848;DHT22;6994;49.752;6.094;2023-01-26T08:10:31;-1.40;99.90
13848;DHT22;6994;49.752;6.094;2023-01-26T08:12:58;-1.40;99.90
13848;DHT22;6994;49.752;6.094;2023-01-26T08:15:25;-1.40;99.90
13848;DHT22;6994;49.752;6.094;2023-01-26T08:17:53;-1.40;99.90
13848;DHT22;6994;49.752;6.094;2023-01-26T08:20:20;-1.40;99.90
13848;DHT22;6994;49.752;6.094;2023-01-26T08:22:47;-1.40;99.90
13848;DHT22;6994;49.752;6.094;2023-01-26T08:25:15;-1.40;99.90
13848;DHT22;6994;49.752;6.094;2023-01-26T08:27:42;-1.40;99.90
13848;DHT22;6994;49.752;6.094;2023-01-26T08:30:09;-1.40;99.90
13848;DHT22;6994;49.752;6.094;2023-01-26T08:32:36;-1.40;99.90
13848;DHT22;6994;49.752;6.094;2023-01-26T08:35:03;-1.40;99.90
13848;DHT22;6994;49.752;6.094;2023-01-26T08:37:31;-1.30;99.90
13848;DHT22;6994;49.752;6.094;2023-01-26T08:39:58;-1.30;99.90
13848;DHT22;6994;49.752;6.094;2023-01-26T08:42:25;-1.30;99.90
13848;DHT22;6994;49.752;6.094;2023-01-26T08:44:52;-1.10;99.90
13848;DHT22;6994;49.752;6.094;2023-01-26T08:47:20;-1.00;99.90
13848;DHT22;6994;49.752;6.094;2023-01-26T08:49:47;-0.90;99.90
13848;DHT22;6994;49.752;6.094;2023-01-26T08:52:15;-0.90;99.90
13848;DHT22;6994;49.752;6.094;2023-01-26T08:54:43;-0.90;99.90
13848;DHT22;6994;49.752;6.094;2023-01-26T08:57:10;-0.90;99.90
13848;DHT22;6994;49.752;6.094;2023-01-26T08:59:37;-0.80;99.90
13848;DHT22;6994;49.752;6.094;2023-01-26T09:02:04;-0.80;99.90
13848;DHT22;6994;49.752;6.094;2023-01-26T09:04:32;-0.80;99.90
13848;DHT22;6994;49.752;6.094;2023-01-26T09:06:59;-0.70;99.90
13848;DHT22;6994;49.752;6.094;2023-01-26T09:09:26;-0.70;99.90
13848;DHT22;6994;49.752;6.094;2023-01-26T09:11:54;-0.60;99.90
13848;DHT22;6994;49.752;6.094;2023-01-26T09:14:21;-0.60;99.90
13848;DHT22;6994;49.752;6.094;2023-01-26T09:16:48;-0.50;99.90
13848;DHT22;6994;49.752;6.094;2023-01-26T09:19:16;-0.50;99.90
13848;DHT22;6994;49.752;6.094;2023-01-26T09:21:43;-0.40;99.90
13848;DHT22;6994;49.752;6.094;2023-01-26T09:24:10;-0.50;99.90
13848;DHT22;6994;49.752;6.094;2023-01-26T09:26:38;-0.50;99.90
13848;DHT22;6994;49.752;6.094;2023-01-26T09:29:06;-0.50;99.90
13848;DHT22;6994;49.752;6.094;2023-01-26T09:31:34;-0.50;99.90
13848;DHT22;6994;49.752;6.094;2023-01-26T09:34:05;-0.50;99.90
13848;DHT22;6994;49.752;6.094;2023-01-26T09:36:32;-0.50;99.90
13848;DHT22;6994;49.752;6.094;2023-01-26T09:38:59;-0.60;99.90
13848;DHT22;6994;49.752;6.094;2023-01-26T09:41:55;-0.60;99.90
13848;DHT22;6994;49.752;6.094;2023-01-26T09:44:18;-0.60;99.90
13848;DHT22;6994;49.752;6.094;2023-01-26T09:47:44;-0.60;99.90
13848;DHT22;6994;49.752;6.094;2023-01-26T09:49:19;-0.60;99.90
13848;DHT22;6994;49.752;6.094;2023-01-26T09:54:35;-0.60;99.90
13848;DHT22;6994;49.752;6.094;2023-01-26T09:57:01;-0.60;99.90
13848;DHT22;6994;49.752;6.094;2023-01-26T09:59:38;-0.30;99.90
13848;DHT22;6994;49.752;6.094;2023-01-26T10:02:00;-0.10;99.90
13848;DHT22;6994;49.752;6.094;2023-01-26T10:04:33;-0.10;99.90
13848;DHT22;6994;49.752;6.094;2023-01-26T10:06:59;0.00;99.90
13848;DHT22;6994;49.752;6.094;2023-01-26T10:09:27;0.00;99.90
13848;DHT22;6994;49.752;6.094;2023-01-26T10:11:57;0.00;99.90
13848;DHT22;6994;49.752;6.094;2023-01-26T10:16:55;0.30;99.90
13848;DHT22;6994;49.752;6.094;2023-01-26T10:19:30;0.20;99.90
13848;DHT22;6994;49.752;6.094;2023-01-26T10:21:51;0.40;99.90
13848;DHT22;6994;49.752;6.094;2023-01-26T10:24:19;0.40;99.90
13848;DHT22;6994;49.752;6.094;2023-01-26T10:26:46;0.50;99.90
13848;DHT22;6994;49.752;6.094;2023-01-26T10:29:13;0.90;99.90
13848;DHT22;6994;49.752;6.094;2023-01-26T10:31:40;1.00;99.90
13848;DHT22;6994;49.752;6.094;2023-01-26T10:34:21;1.00;99.90
13848;DHT22;6994;49.752;6.094;2023-01-26T10:36:41;1.00;99.90
13848;DHT22;6994;49.752;6.094;2023-01-26T10:39:08;1.00;99.90
13848;DHT22;6994;49.752;6.094;2023-01-26T10:41:35;1.00;99.90
13848;DHT22;6994;49.752;6.094;2023-01-26T10:46:35;1.20;99.90
13848;DHT22;6994;49.752;6.094;2023-01-26T10:51:37;1.10;99.90
13848;DHT22;6994;49.752;6.094;2023-01-26T10:54:23;1.10;99.90
13848;DHT22;6994;49.752;6.094;2023-01-26T10:56:56;1.10;99.90
13848;DHT22;6994;49.752;6.094;2023-01-26T10:59:36;1.10;99.90
13848;DHT22;6994;49.752;6.094;2023-01-26T11:02:17;1.10;99.90
13848;DHT22;6994;49.752;6.094;2023-01-26T11:04:29;1.10;99.90
13848;DHT22;6994;49.752;6.094;2023-01-26T11:07:00;1.10;99.90
13848;DHT22;6994;49.752;6.094;2023-01-26T11:09:28;1.40;99.90
13848;DHT22;6994;49.752;6.094;2023-01-26T11:11:55;1.60;99.90
13848;DHT22;6994;49.752;6.094;2023-01-26T11:14:21;1.70;99.90
13848;DHT22;6994;49.752;6.094;2023-01-26T11:16:49;2.20;99.90
13848;DHT22;6994;49.752;6.094;2023-01-26T11:19:31;2.20;99.90
13848;DHT22;6994;49.752;6.094;2023-01-26T11:24:47;2.20;99.90
13848;DHT22;6994;49.752;6.094;2023-01-26T11:27:19;2.20;99.90
13848;DHT22;6994;49.752;6.094;2023-01-26T11:29:45;2.20;99.90
13848;DHT22;6994;49.752;6.094;2023-01-26T11:32:18;2.20;99.90
13848;DHT22;6994;49.752;6.094;2023-01-26T11:37:45;2.50;99.90
13848;DHT22;6994;49.752;6.094;2023-01-26T11:40:23;2.50;99.90
13848;DHT22;6994;49.752;6.094;2023-01-26T11:45:22;2.40;99.90
13848;DHT22;6994;49.752;6.094;2023-01-26T11:48:20;2.30;99.90
13848;DHT22;6994;49.752;6.094;2023-01-26T11:50:51;2.50;99.90
13848;DHT22;6994;49.752;6.094;2023-01-26T11:58:40;2.40;99.90
13848;DHT22;6994;49.752;6.094;2023-01-26T12:01:08;2.40;99.90
13848;DHT22;6994;49.752;6.094;2023-01-26T12:03:49;2.70;99.90
13848;DHT22;6994;49.752;6.094;2023-01-26T12:06:59;2.90;99.90
13848;DHT22;6994;49.752;6.094;2023-01-26T12:08:55;2.90;99.90
13848;DHT22;6994;49.752;6.094;2023-01-26T12:11:22;2.90;99.90
13848;DHT22;6994;49.752;6.094;2023-01-26T12:13:51;2.80;99.90
13848;DHT22;6994;49.752;6.094;2023-01-26T12:19:09;2.70;99.90
13848;DHT22;6994;49.752;6.094;2023-01-26T12:21:33;2.70;99.90
13848;DHT22;6994;49.752;6.094;2023-01-26T12:24:02;2.60;99.90
13848;DHT22;6994;49.752;6.094;2023-01-26T12:26:33;2.60;99.90
13848;DHT22;6994;49.752;6.094;2023-01-26T12:29:15;2.60;99.90
13848;DHT22;6994;49.752;6.094;2023-01-26T12:31:48;2.60;99.90
13848;DHT22;6994;49.752;6.094;2023-01-26T12:34:14;2.60;99.90
13848;DHT22;6994;49.752;6.094;2023-01-26T12:39:43;2.60;99.90
13848;DHT22;6994;49.752;6.094;2023-01-26T12:42:14;2.60;99.90
13848;DHT22;6994;49.752;6.094;2023-01-26T12:44:40;2.60;99.90
13848;DHT22;6994;49.752;6.094;2023-01-26T12:47:25;2.60;99.90
13848;DHT22;6994;49.752;6.094;2023-01-26T12:55:31;2.70;99.90
13848;DHT22;6994;49.752;6.094;2023-01-26T12:58:01;2.80;99.90
13848;DHT22;6994;49.752;6.094;2023-01-26T13:00:33;3.10;99.90
13848;DHT22;6994;49.752;6.094;2023-01-26T13:03:13;3.20;99.90
13848;DHT22;6994;49.752;6.094;2023-01-26T13:05:34;3.10;99.90
13848;DHT22;6994;49.752;6.094;2023-01-26T13:10:59;3.30;99.90
13848;DHT22;6994;49.752;6.094;2023-01-26T13:13:32;3.20;99.90
13848;DHT22;6994;49.752;6.094;2023-01-26T13:18:50;3.10;99.90
13848;DHT22;6994;49.752;6.094;2023-01-26T13:24:00;2.90;99.90
13848;DHT22;6994;49.752;6.094;2023-01-26T13:31:55;2.70;99.90
13848;DHT22;6994;49.752;6.094;2023-01-26T13:34:28;2.70;99.90
13848;DHT22;6994;49.752;6.094;2023-01-26T13:36:54;2.70;99.90
13848;DHT22;6994;49.752;6.094;2023-01-26T13:39:33;2.70;99.90
13848;DHT22;6994;49.752;6.094;2023-01-26T13:41:58;2.90;99.90
13848;DHT22;6994;49.752;6.094;2023-01-26T13:44:29;2.90;99.90
13848;DHT22;6994;49.752;6.094;2023-01-26T13:46:57;2.90;99.90
13848;DHT22;6994;49.752;6.094;2023-01-26T13:49:35;2.80;99.90
13848;DHT22;6994;49.752;6.094;2023-01-26T13:51:50;2.80;99.90
13848;DHT22;6994;49.752;6.094;2023-01-26T13:54:17;2.70;99.90
13848;DHT22;6994;49.752;6.094;2023-01-26T13:57:03;2.70;99.90
13848;DHT22;6994;49.752;6.094;2023-01-26T13:59:29;2.70;99.90
13848;DHT22;6994;49.752;6.094;2023-01-26T14:01:57;2.80;99.90
13848;DHT22;6994;49.752;6.094;2023-01-26T14:04:31;2.80;99.90
13848;DHT22;6994;49.752;6.094;2023-01-26T14:07:04;2.80;99.90
13848;DHT22;6994;49.752;6.094;2023-01-26T14:09:29;2.80;99.90
13848;DHT22;6994;49.752;6.094;2023-01-26T14:11:58;2.80;99.90
13848;DHT22;6994;49.752;6.094;2023-01-26T14:14:26;3.10;99.90
13848;DHT22;6994;49.752;6.094;2023-01-26T14:16:53;3.10;99.90
13848;DHT22;6994;49.752;6.094;2023-01-26T14:19:21;3.10;99.90
13848;DHT22;6994;49.752;6.094;2023-01-26T14:21:49;3.00;99.90
13848;DHT22;6994;49.752;6.094;2023-01-26T14:24:15;3.00;99.90
13848;DHT22;6994;49.752;6.094;2023-01-26T14:26:42;2.90;99.90
13848;DHT22;6994;49.752;6.094;2023-01-26T14:29:17;2.90;99.90
13848;DHT22;6994;49.752;6.094;2023-01-26T14:31:39;2.80;99.90
13848;DHT22;6994;49.752;6.094;2023-01-26T14:34:07;2.80;99.90
13848;DHT22;6994;49.752;6.094;2023-01-26T14:36:34;2.70;99.90
13848;DHT22;6994;49.752;6.094;2023-01-26T14:39:01;2.70;99.90
13848;DHT22;6994;49.752;6.094;2023-01-26T14:41:32;2.70;99.90
13848;DHT22;6994;49.752;6.094;2023-01-26T14:43:58;2.90;99.90
13848;DHT22;6994;49.752;6.094;2023-01-26T14:49:11;2.90;99.90
13848;DHT22;6994;49.752;6.094;2023-01-26T14:51:35;2.90;99.90
13848;DHT22;6994;49.752;6.094;2023-01-26T14:54:23;2.80;99.90
13848;DHT22;6994;49.752;6.094;2023-01-26T14:56:45;2.80;99.90
13848;DHT22;6994;49.752;6.094;2023-01-26T14:59:20;2.70;99.90
13848;DHT22;6994;49.752;6.094;2023-01-26T15:01:41;2.70;99.90
13848;DHT22;6994;49.752;6.094;2023-01-26T15:04:21;2.90;99.90
13848;DHT22;6994;49.752;6.094;2023-01-26T15:06:48;3.00;99.90
13848;DHT22;6994;49.752;6.094;2023-01-26T15:09:25;2.90;99.90
13848;DHT22;6994;49.752;6.094;2023-01-26T15:11:53;2.90;99.90
13848;DHT22;6994;49.752;6.094;2023-01-26T15:14:50;2.90;99.90
13848;DHT22;6994;49.752;6.094;2023-01-26T15:17:41;2.80;99.90
13848;DHT22;6994;49.752;6.094;2023-01-26T15:22:46;2.70;99.90
13848;DHT22;6994;49.752;6.094;2023-01-26T15:25:16;2.70;99.90
13848;DHT22;6994;49.752;6.094;2023-01-26T15:27:38;2.70;99.90
13848;DHT22;6994;49.752;6.094;2023-01-26T15:30:05;2.60;99.90
13848;DHT22;6994;49.752;6.094;2023-01-26T15:32:36;2.60;99.90
13848;DHT22;6994;49.752;6.094;2023-01-26T15:35:13;2.60;99.90
13848;DHT22;6994;49.752;6.094;2023-01-26T15:37:34;3.20;99.90
13848;DHT22;6994;49.752;6.094;2023-01-26T15:40:01;3.20;99.90
13848;DHT22;6994;49.752;6.094;2023-01-26T15:42:28;3.20;99.90
13848;DHT22;6994;49.752;6.094;2023-01-26T15:44:55;3.20;99.90
13848;DHT22;6994;49.752;6.094;2023-01-26T15:47:23;3.10;99.90
13848;DHT22;6994;49.752;6.094;2023-01-26T15:49:50;3.00;99.90
13848;DHT22;6994;49.752;6.094;2023-01-26T15:52:19;2.90;99.90
13848;DHT22;6994;49.752;6.094;2023-01-26T15:54:44;3.00;99.90
13848;DHT22;6994;49.752;6.094;2023-01-26T15:57:12;3.00;99.90
13848;DHT22;6994;49.752;6.094;2023-01-26T15:59:39;2.90;99.90
13848;DHT22;6994;49.752;6.094;2023-01-26T16:02:11;2.80;99.90
13848;DHT22;6994;49.752;6.094;2023-01-26T16:04:37;2.80;99.90
13848;DHT22;6994;49.752;6.094;2023-01-26T16:07:09;2.60;99.90
13848;DHT22;6994;49.752;6.094;2023-01-26T16:09:32;2.60;99.90
13848;DHT22;6994;49.752;6.094;2023-01-26T16:11:59;2.60;99.90
13848;DHT22;6994;49.752;6.094;2023-01-26T16:14:26;2.50;99.90
13848;DHT22;6994;49.752;6.094;2023-01-26T16:16:54;2.50;99.90
13848;DHT22;6994;49.752;6.094;2023-01-26T16:19:21;2.50;99.90
13848;DHT22;6994;49.752;6.094;2023-01-26T16:21:48;2.40;99.90
13848;DHT22;6994;49.752;6.094;2023-01-26T16:24:15;2.40;99.90
13848;DHT22;6994;49.752;6.094;2023-01-26T16:26:42;2.60;99.90
13848;DHT22;6994;49.752;6.094;2023-01-26T16:29:10;2.70;99.90
13848;DHT22;6994;49.752;6.094;2023-01-26T16:31:38;2.60;99.90
13848;DHT22;6994;49.752;6.094;2023-01-26T16:34:05;2.60;99.90
13848;DHT22;6994;49.752;6.094;2023-01-26T16:36:32;2.60;99.90
13848;DHT22;6994;49.752;6.094;2023-01-26T16:38:59;2.50;99.90
13848;DHT22;6994;49.752;6.094;2023-01-26T16:41:27;2.50;99.90
13848;DHT22;6994;49.752;6.094;2023-01-26T16:43:54;2.50;99.90
13848;DHT22;6994;49.752;6.094;2023-01-26T16:46:21;2.40;99.90
13848;DHT22;6994;49.752;6.094;2023-01-26T16:48:48;2.40;99.90
13848;DHT22;6994;49.752;6.094;2023-01-26T16:51:26;2.40;99.90
13848;DHT22;6994;49.752;6.094;2023-01-26T16:53:52;2.30;99.90
13848;DHT22;6994;49.752;6.094;2023-01-26T16:56:19;2.60;99.90
13848;DHT22;6994;49.752;6.094;2023-01-26T16:58:46;2.60;99.90
13848;DHT22;6994;49.752;6.094;2023-01-26T17:01:18;2.60;99.90